createdAt,value
2016-12-23T00:00:03.090Z,0
2016-12-23T00:01:03.016Z,0
2016-12-23T00:02:03.049Z,0
2016-12-23T00:03:03.045Z,0
2016-12-23T00:04:03.064Z,0
2016-12-23T00:05:03.106Z,0
2016-12-23T00:06:03.089Z,0
2016-12-23T00:07:03.112Z,0
2016-12-23T00:08:03.125Z,0
2016-12-23T00:09:03.150Z,0
2016-12-23T00:10:03.146Z,0
2016-12-23T00:11:03.225Z,0
2016-12-23T00:12:03.171Z,0
2016-12-23T00:13:03.255Z,0
2016-12-23T00:14:03.209Z,0
2016-12-23T00:15:03.305Z,0
2016-12-23T00:16:03.245Z,0
2016-12-23T00:17:03.312Z,0
2016-12-23T00:18:03.262Z,0
2016-12-23T00:19:03.317Z,0
2016-12-23T00:20:03.377Z,0
2016-12-23T00:21:03.338Z,0
2016-12-23T00:22:03.323Z,0
2016-12-23T00:23:03.394Z,0
2016-12-23T00:24:03.350Z,0
2016-12-23T00:25:03.411Z,0
2016-12-23T00:26:03.410Z,0
2016-12-23T00:27:03.413Z,0
2016-12-23T00:28:03.413Z,0
2016-12-23T00:29:03.441Z,0
2016-12-23T00:30:03.439Z,0
2016-12-23T00:31:03.464Z,0
2016-12-23T00:32:03.470Z,0
2016-12-23T00:33:03.486Z,0
2016-12-23T00:34:03.491Z,0
2016-12-23T00:35:03.513Z,0
2016-12-23T00:36:03.521Z,0
2016-12-23T00:37:03.543Z,0
2016-12-23T00:38:03.559Z,0
2016-12-23T00:39:03.652Z,0
2016-12-23T00:40:03.589Z,0
2016-12-23T00:41:03.610Z,0
2016-12-23T00:42:03.613Z,0
2016-12-23T00:43:03.631Z,0
2016-12-23T00:44:03.641Z,0
2016-12-23T00:45:03.643Z,0
2016-12-23T00:46:03.680Z,0
2016-12-23T00:47:03.757Z,0
2016-12-23T00:48:03.686Z,0
2016-12-23T00:49:03.712Z,0
2016-12-23T00:50:03.724Z,0
2016-12-23T00:51:03.739Z,0
2016-12-23T00:52:03.833Z,0
2016-12-23T00:53:03.770Z,0
2016-12-23T00:54:03.770Z,0
2016-12-23T00:55:03.795Z,0
2016-12-23T00:56:03.830Z,0
2016-12-23T00:57:03.840Z,0
2016-12-23T00:58:03.836Z,0
2016-12-23T00:59:03.861Z,0
2016-12-23T01:00:03.862Z,0
2016-12-23T01:01:03.890Z,0
2016-12-23T01:02:03.900Z,0
2016-12-23T01:03:03.917Z,0
2016-12-23T01:04:03.929Z,0
2016-12-23T01:05:03.937Z,0
2016-12-23T01:06:03.952Z,0
2016-12-23T01:07:03.967Z,0
2016-12-23T01:08:03.990Z,0
2016-12-23T01:09:04.017Z,0
2016-12-23T01:10:04.016Z,0
2016-12-23T01:11:04.030Z,0
2016-12-23T01:12:04.046Z,0
2016-12-23T01:13:04.074Z,0
2016-12-23T01:14:04.061Z,0
2016-12-23T01:15:04.092Z,0
2016-12-23T01:16:04.129Z,0
2016-12-23T01:17:04.116Z,0
2016-12-23T01:18:04.127Z,0
2016-12-23T01:19:04.143Z,0
2016-12-23T01:20:04.158Z,0
2016-12-23T01:21:04.173Z,0
2016-12-23T01:22:04.187Z,0
2016-12-23T01:23:04.196Z,0
2016-12-23T01:24:04.223Z,0
2016-12-23T01:25:04.234Z,0
2016-12-23T01:26:04.258Z,0
2016-12-23T01:27:04.256Z,0
2016-12-23T01:28:04.280Z,0
2016-12-23T01:29:04.281Z,0
2016-12-23T01:30:04.305Z,0
2016-12-23T01:31:04.321Z,0
2016-12-23T01:32:04.329Z,0
2016-12-23T01:33:04.347Z,0
2016-12-23T01:34:04.360Z,0
2016-12-23T01:35:04.381Z,0
2016-12-23T01:36:04.401Z,0
2016-12-23T01:37:04.406Z,0
2016-12-23T01:38:04.434Z,0
2016-12-23T01:39:04.446Z,0
2016-12-23T01:40:04.441Z,0
2016-12-23T01:41:04.449Z,0
2016-12-23T01:42:04.472Z,0
2016-12-23T01:43:04.491Z,0
2016-12-23T01:44:04.494Z,0
2016-12-23T01:45:04.524Z,0
2016-12-23T01:46:04.545Z,0
2016-12-23T01:47:04.555Z,0
2016-12-23T01:48:04.561Z,0
2016-12-23T01:49:04.579Z,0
2016-12-23T01:50:04.599Z,0
2016-12-23T01:51:04.600Z,0
2016-12-23T01:52:04.618Z,0
2016-12-23T01:53:04.961Z,0
2016-12-23T01:54:04.646Z,0
2016-12-23T01:55:04.661Z,0
2016-12-23T01:56:04.677Z,0
2016-12-23T01:57:04.698Z,0
2016-12-23T01:58:04.720Z,0
2016-12-23T01:59:04.715Z,0
2016-12-23T02:00:04.735Z,0
2016-12-23T02:01:04.762Z,0
2016-12-23T02:02:04.771Z,0
2016-12-23T02:03:04.779Z,0
2016-12-23T02:04:04.802Z,0
2016-12-23T02:05:04.807Z,0
2016-12-23T02:06:04.851Z,0
2016-12-23T02:07:04.839Z,0
2016-12-23T02:08:04.865Z,0
2016-12-23T02:09:04.878Z,0
2016-12-23T02:10:04.879Z,0
2016-12-23T02:11:04.894Z,0
2016-12-23T02:12:04.918Z,0
2016-12-23T02:13:04.925Z,0
2016-12-23T02:14:04.947Z,0
2016-12-23T02:15:04.951Z,0
2016-12-23T02:16:04.963Z,0
2016-12-23T02:17:04.982Z,0
2016-12-23T02:18:04.992Z,0
2016-12-23T02:19:05.010Z,0
2016-12-23T02:20:05.030Z,0
2016-12-23T02:21:05.031Z,0
2016-12-23T02:22:05.056Z,0
2016-12-23T02:23:05.066Z,0
2016-12-23T02:24:05.089Z,0
2016-12-23T02:25:05.085Z,0
2016-12-23T02:26:05.115Z,0
2016-12-23T02:27:05.119Z,0
2016-12-23T02:28:05.139Z,0
2016-12-23T02:29:05.138Z,0
2016-12-23T02:30:05.170Z,0
2016-12-23T02:31:05.177Z,0
2016-12-23T02:32:05.189Z,0
2016-12-23T02:33:05.211Z,0
2016-12-23T02:34:05.217Z,0
2016-12-23T02:35:05.233Z,0
2016-12-23T02:36:05.250Z,0
2016-12-23T02:37:05.267Z,0
2016-12-23T02:38:05.274Z,0
2016-12-23T02:39:05.292Z,0
2016-12-23T02:40:05.318Z,0
2016-12-23T02:41:05.311Z,0
2016-12-23T02:42:05.335Z,0
2016-12-23T02:43:05.355Z,0
2016-12-23T02:44:05.374Z,0
2016-12-23T02:45:05.371Z,0
2016-12-23T02:46:05.387Z,0
2016-12-23T02:47:05.402Z,0
2016-12-23T02:48:05.437Z,0
2016-12-23T02:49:05.429Z,0
2016-12-23T02:50:05.455Z,0
2016-12-23T02:51:05.453Z,0
2016-12-23T02:52:05.476Z,0
2016-12-23T02:53:05.494Z,0
2016-12-23T02:54:05.505Z,0
2016-12-23T02:55:05.516Z,0
2016-12-23T02:56:05.539Z,0
2016-12-23T02:57:05.549Z,0
2016-12-23T02:58:05.567Z,0
2016-12-23T02:59:05.581Z,0
2016-12-23T03:00:05.591Z,0
2016-12-23T03:01:05.600Z,0
2016-12-23T03:02:05.617Z,0
2016-12-23T03:03:05.633Z,0
2016-12-23T03:04:05.647Z,0
2016-12-23T03:05:05.651Z,0
2016-12-23T03:06:05.676Z,0
2016-12-23T03:07:05.681Z,0
2016-12-23T03:08:05.704Z,0
2016-12-23T03:09:05.717Z,0
2016-12-23T03:10:05.738Z,0
2016-12-23T03:11:05.744Z,0
2016-12-23T03:12:05.760Z,0
2016-12-23T03:13:05.778Z,0
2016-12-23T03:14:05.792Z,0
2016-12-23T03:15:05.793Z,0
2016-12-23T03:16:05.814Z,0
2016-12-23T03:17:05.829Z,0
2016-12-23T03:18:05.848Z,0
2016-12-23T03:19:05.849Z,0
2016-12-23T03:20:05.868Z,0
2016-12-23T03:21:05.898Z,0
2016-12-23T03:22:05.909Z,0
2016-12-23T03:23:05.913Z,0
2016-12-23T03:24:05.927Z,0
2016-12-23T03:25:05.953Z,0
2016-12-23T03:26:05.954Z,0
2016-12-23T03:27:05.969Z,0
2016-12-23T03:28:05.989Z,0
2016-12-23T03:29:06.013Z,0
2016-12-23T03:30:06.005Z,0
2016-12-23T03:31:06.027Z,0
2016-12-23T03:32:06.043Z,0
2016-12-23T03:33:06.051Z,0
2016-12-23T03:34:06.072Z,0
2016-12-23T03:35:06.089Z,0
2016-12-23T03:36:06.103Z,0
2016-12-23T03:37:06.123Z,0
2016-12-23T03:38:06.130Z,0
2016-12-23T03:39:06.129Z,0
2016-12-23T03:40:06.154Z,0
2016-12-23T03:41:06.171Z,0
2016-12-23T03:42:06.187Z,0
2016-12-23T03:43:06.198Z,0
2016-12-23T03:44:06.205Z,0
2016-12-23T03:45:06.240Z,0
2016-12-23T03:46:06.558Z,0
2016-12-23T03:47:06.240Z,0
2016-12-23T03:48:06.265Z,0
2016-12-23T03:49:06.275Z,0
2016-12-23T03:50:06.288Z,0
2016-12-23T03:51:06.309Z,0
2016-12-23T03:52:06.324Z,0
2016-12-23T03:53:06.333Z,0
2016-12-23T03:54:06.349Z,0
2016-12-23T03:55:06.367Z,0
2016-12-23T03:56:06.372Z,0
2016-12-23T03:57:06.386Z,0
2016-12-23T03:58:06.402Z,0
2016-12-23T03:59:06.407Z,0
2016-12-23T04:01:21.351Z,0
2016-12-23T04:02:06.455Z,0
2016-12-23T04:03:06.480Z,0
2016-12-23T04:04:06.489Z,0
2016-12-23T04:05:06.510Z,0
2016-12-23T04:06:06.508Z,0
2016-12-23T04:07:06.528Z,0
2016-12-23T04:08:06.537Z,0
2016-12-23T04:09:06.559Z,0
2016-12-23T04:10:06.576Z,0
2016-12-23T04:11:06.591Z,0
2016-12-23T04:12:06.598Z,0
2016-12-23T04:13:06.624Z,0
2016-12-23T04:14:06.948Z,0
2016-12-23T04:15:06.658Z,0
2016-12-23T04:16:06.648Z,0
2016-12-23T04:17:06.668Z,0
2016-12-23T04:18:06.677Z,0
2016-12-23T04:19:06.709Z,0
2016-12-23T04:20:06.715Z,0
2016-12-23T04:21:06.728Z,0
2016-12-23T04:22:06.741Z,0
2016-12-23T04:23:06.757Z,0
2016-12-23T04:24:06.776Z,0
2016-12-23T04:25:06.772Z,0
2016-12-23T04:26:06.807Z,0
2016-12-23T04:27:06.814Z,0
2016-12-23T04:28:06.837Z,0
2016-12-23T04:29:06.845Z,0
2016-12-23T04:30:06.860Z,0
2016-12-23T04:31:06.872Z,0
2016-12-23T04:32:06.887Z,0
2016-12-23T04:33:06.900Z,0
2016-12-23T04:34:06.920Z,0
2016-12-23T04:35:06.930Z,0
2016-12-23T04:36:06.927Z,0
2016-12-23T04:37:06.955Z,0
2016-12-23T04:38:06.992Z,0
2016-12-23T04:39:06.995Z,0
2016-12-23T04:40:06.986Z,0
2016-12-23T04:41:07.015Z,0
2016-12-23T04:42:07.028Z,0
2016-12-23T04:43:07.038Z,0
2016-12-23T04:44:07.055Z,0
2016-12-23T04:45:07.070Z,0
2016-12-23T04:46:07.079Z,0
2016-12-23T04:47:07.085Z,0
2016-12-23T04:48:07.107Z,0
2016-12-23T04:49:07.122Z,0
2016-12-23T04:50:07.123Z,0
2016-12-23T04:51:07.151Z,0
2016-12-23T04:52:07.164Z,0
2016-12-23T04:53:07.177Z,0
2016-12-23T04:54:07.193Z,0
2016-12-23T04:55:07.223Z,0
2016-12-23T04:56:07.224Z,0
2016-12-23T04:57:07.249Z,0
2016-12-23T04:58:07.251Z,0
2016-12-23T04:59:07.268Z,0
2016-12-23T05:00:07.285Z,0
2016-12-23T05:01:07.291Z,0
2016-12-23T05:02:07.303Z,0
2016-12-23T05:03:07.322Z,0
2016-12-23T05:04:07.331Z,0
2016-12-23T05:05:07.355Z,0
2016-12-23T05:06:07.370Z,0
2016-12-23T05:07:07.383Z,0
2016-12-23T05:08:07.387Z,0
2016-12-23T05:09:07.410Z,0
2016-12-23T05:10:07.415Z,0
2016-12-23T05:11:07.433Z,0
2016-12-23T05:12:07.445Z,0
2016-12-23T05:13:07.479Z,0
2016-12-23T05:14:07.468Z,0
2016-12-23T05:15:07.495Z,0
2016-12-23T05:16:07.506Z,0
2016-12-23T05:17:07.525Z,0
2016-12-23T05:18:07.528Z,0
2016-12-23T05:19:07.564Z,0
2016-12-23T05:20:07.561Z,0
2016-12-23T05:21:07.587Z,0
2016-12-23T05:22:07.585Z,0
2016-12-23T05:23:07.603Z,0
2016-12-23T05:24:07.610Z,0
2016-12-23T05:25:07.663Z,0
2016-12-23T05:26:07.637Z,0
2016-12-23T05:27:07.655Z,0
2016-12-23T05:28:07.677Z,0
2016-12-23T05:29:07.688Z,0
2016-12-23T05:30:07.706Z,0
2016-12-23T05:31:07.710Z,0
2016-12-23T05:32:07.732Z,0
2016-12-23T05:33:07.756Z,0
2016-12-23T05:34:07.750Z,0
2016-12-23T05:35:07.803Z,0
2016-12-23T05:36:07.790Z,0
2016-12-23T05:37:07.807Z,0
2016-12-23T05:38:07.809Z,0
2016-12-23T05:39:07.848Z,0
2016-12-23T05:40:07.849Z,0
2016-12-23T05:41:08.186Z,0
2016-12-23T05:42:07.866Z,0
2016-12-23T05:43:07.873Z,0
2016-12-23T05:44:07.886Z,0
2016-12-23T05:45:08.243Z,0
2016-12-23T05:46:07.931Z,0
2016-12-23T05:47:07.950Z,0
2016-12-23T05:48:07.959Z,0
2016-12-23T05:49:07.978Z,0
2016-12-23T05:50:07.982Z,0
2016-12-23T05:51:08.332Z,0
2016-12-23T05:52:08.014Z,0
2016-12-23T05:53:08.049Z,0
2016-12-23T05:54:08.045Z,0
2016-12-23T05:55:08.069Z,0
2016-12-23T05:56:08.068Z,0
2016-12-23T05:57:08.101Z,0
2016-12-23T05:58:08.098Z,0
2016-12-23T05:59:08.110Z,0
2016-12-23T06:00:08.125Z,0
2016-12-23T06:01:08.149Z,0
2016-12-23T06:02:08.160Z,0
2016-12-23T06:03:08.169Z,0
2016-12-23T06:04:08.187Z,0
2016-12-23T06:05:08.200Z,0
2016-12-23T06:06:08.217Z,0
2016-12-23T06:07:08.229Z,0
2016-12-23T06:08:08.320Z,0
2016-12-23T06:09:08.258Z,0
2016-12-23T06:10:08.270Z,0
2016-12-23T06:11:08.627Z,0
2016-12-23T06:12:08.292Z,0
2016-12-23T06:13:08.325Z,0
2016-12-23T06:14:08.318Z,0
2016-12-23T06:15:08.350Z,0
2016-12-23T06:16:08.363Z,0
2016-12-23T06:17:08.375Z,0
2016-12-23T06:18:08.378Z,0
2016-12-23T06:19:08.398Z,0
2016-12-23T06:20:08.412Z,0
2016-12-23T06:21:08.449Z,0
2016-12-23T06:22:08.772Z,0
2016-12-23T06:23:08.465Z,0
2016-12-23T06:24:08.466Z,0
2016-12-23T06:25:08.515Z,0
2016-12-23T06:26:08.501Z,0
2016-12-23T06:27:08.511Z,0
2016-12-23T06:28:08.536Z,0
2016-12-23T06:29:08.542Z,0
2016-12-23T06:30:08.582Z,0
2016-12-23T06:31:08.580Z,0
2016-12-23T06:32:08.598Z,0
2016-12-23T06:33:08.632Z,0
2016-12-23T06:34:08.604Z,0
2016-12-23T06:35:08.640Z,0
2016-12-23T06:36:08.649Z,0
2016-12-23T06:37:08.988Z,0
2016-12-23T06:38:08.658Z,0
2016-12-23T06:39:08.697Z,0
2016-12-23T06:40:08.698Z,0
2016-12-23T06:41:08.722Z,0
2016-12-23T06:42:08.722Z,0
2016-12-23T06:43:08.745Z,0
2016-12-23T06:44:08.762Z,0
2016-12-23T06:45:08.783Z,0
2016-12-23T06:46:08.773Z,0
2016-12-23T06:47:08.804Z,0
2016-12-23T06:48:08.820Z,0
2016-12-23T06:49:08.826Z,0
2016-12-23T06:50:08.843Z,0
2016-12-23T06:51:08.873Z,0
2016-12-23T06:52:08.857Z,0
2016-12-23T06:53:08.882Z,0
2016-12-23T06:54:08.903Z,0
2016-12-23T06:55:08.921Z,0
2016-12-23T06:56:08.932Z,0
2016-12-23T06:57:09.040Z,0
2016-12-23T06:58:08.969Z,4
2016-12-23T06:59:08.977Z,4
2016-12-23T07:00:08.997Z,0
2016-12-23T07:01:09.013Z,0
2016-12-23T07:02:09.021Z,4
2016-12-23T07:03:09.030Z,4
2016-12-23T07:04:09.044Z,4
2016-12-23T07:05:09.063Z,4
2016-12-23T07:06:09.082Z,4
2016-12-23T07:07:09.097Z,4
2016-12-23T07:08:09.097Z,8
2016-12-23T07:09:09.125Z,8
2016-12-23T07:10:09.170Z,8
2016-12-23T07:11:09.161Z,8
2016-12-23T07:12:09.158Z,8
2016-12-23T07:13:09.184Z,8
2016-12-23T07:14:09.188Z,12
2016-12-23T07:15:09.531Z,12
2016-12-23T07:16:09.232Z,12
2016-12-23T07:17:09.240Z,16
2016-12-23T07:18:09.256Z,16
2016-12-23T07:19:09.264Z,16
2016-12-23T07:20:09.288Z,16
2016-12-23T07:21:09.308Z,20
2016-12-23T07:22:09.305Z,20
2016-12-23T07:23:09.364Z,24
2016-12-23T07:24:09.333Z,24
2016-12-23T07:25:09.360Z,28
2016-12-23T07:26:09.365Z,32
2016-12-23T07:27:09.400Z,36
2016-12-23T07:28:09.389Z,44
2016-12-23T07:29:09.428Z,48
2016-12-23T07:30:09.416Z,48
2016-12-23T07:31:09.455Z,52
2016-12-23T07:32:09.453Z,52
2016-12-23T07:33:09.475Z,52
2016-12-23T07:34:09.484Z,56
2016-12-23T07:35:09.830Z,64
2016-12-23T07:36:09.517Z,64
2016-12-23T07:37:09.533Z,68
2016-12-23T07:38:09.536Z,72
2016-12-23T07:39:09.569Z,80
2016-12-23T07:40:09.591Z,88
2016-12-23T07:41:09.584Z,96
2016-12-23T07:42:09.602Z,104
2016-12-23T07:43:09.626Z,112
2016-12-23T07:44:09.636Z,120
2016-12-23T07:45:09.973Z,128
2016-12-23T07:46:09.664Z,136
2016-12-23T07:47:09.673Z,148
2016-12-23T07:48:09.698Z,160
2016-12-23T07:49:09.702Z,172
2016-12-23T07:50:09.718Z,184
2016-12-23T07:51:10.112Z,200
2016-12-23T07:52:09.743Z,204
2016-12-23T07:53:09.774Z,208
2016-12-23T07:54:09.784Z,212
2016-12-23T07:55:09.820Z,220
2016-12-23T07:56:09.804Z,232
2016-12-23T07:57:09.828Z,256
2016-12-23T07:58:09.879Z,276
2016-12-23T07:59:09.880Z,296
2016-12-23T08:00:09.855Z,292
2016-12-23T08:01:09.875Z,288
2016-12-23T08:02:09.916Z,284
2016-12-23T08:03:10.241Z,288
2016-12-23T08:04:09.915Z,292
2016-12-23T08:05:09.950Z,300
2016-12-23T08:06:09.949Z,304
2016-12-23T08:07:09.990Z,312
2016-12-23T08:08:09.994Z,320
2016-12-23T08:09:10.000Z,332
2016-12-23T08:10:10.027Z,352
2016-12-23T08:11:10.024Z,372
2016-12-23T08:12:10.049Z,392
2016-12-23T08:13:10.065Z,416
2016-12-23T08:14:10.060Z,444
2016-12-23T08:15:10.079Z,456
2016-12-23T08:16:10.088Z,460
2016-12-23T08:17:10.127Z,456
2016-12-23T08:18:10.132Z,456
2016-12-23T08:19:10.165Z,456
2016-12-23T08:20:10.151Z,436
2016-12-23T08:21:10.185Z,412
2016-12-23T08:22:10.178Z,392
2016-12-23T08:23:10.199Z,376
2016-12-23T08:24:10.205Z,368
2016-12-23T08:25:10.228Z,380
2016-12-23T08:26:10.243Z,396
2016-12-23T08:27:10.254Z,416
2016-12-23T08:28:10.284Z,424
2016-12-23T08:29:10.286Z,460
2016-12-23T08:30:10.302Z,512
2016-12-23T08:31:10.321Z,556
2016-12-23T08:32:10.332Z,592
2016-12-23T08:33:10.354Z,644
2016-12-23T08:34:10.355Z,708
2016-12-23T08:35:10.385Z,748
2016-12-23T08:36:10.384Z,780
2016-12-23T08:37:10.400Z,788
2016-12-23T08:38:10.423Z,784
2016-12-23T08:39:10.445Z,820
2016-12-23T08:40:10.448Z,872
2016-12-23T08:41:10.466Z,896
2016-12-23T08:42:10.477Z,900
2016-12-23T08:43:10.502Z,880
2016-12-23T08:44:10.498Z,892
2016-12-23T08:45:10.530Z,896
2016-12-23T08:46:10.534Z,936
2016-12-23T08:47:10.879Z,940
2016-12-23T08:48:10.566Z,972
2016-12-23T08:49:10.585Z,1040
2016-12-23T08:50:10.592Z,1096
2016-12-23T08:51:10.642Z,1164
2016-12-23T08:52:10.625Z,1184
2016-12-23T08:53:10.642Z,1064
2016-12-23T08:54:10.662Z,1128
2016-12-23T08:55:10.660Z,1220
2016-12-23T08:56:10.683Z,1264
2016-12-23T08:57:10.710Z,1332
2016-12-23T08:58:10.719Z,1364
2016-12-23T08:59:10.746Z,1300
2016-12-23T09:00:10.767Z,1384
2016-12-23T09:01:10.766Z,1348
2016-12-23T09:02:10.772Z,1388
2016-12-23T09:03:11.100Z,1444
2016-12-23T09:04:10.805Z,1448
2016-12-23T09:05:10.833Z,1456
2016-12-23T09:06:10.842Z,1336
2016-12-23T09:07:10.864Z,1300
2016-12-23T09:08:10.862Z,1392
2016-12-23T09:09:10.884Z,1448
2016-12-23T09:10:10.889Z,1432
2016-12-23T09:11:10.917Z,1320
2016-12-23T09:12:10.922Z,1260
2016-12-23T09:13:10.958Z,1232
2016-12-23T09:14:10.956Z,1212
2016-12-23T09:15:11.298Z,1228
2016-12-23T09:16:10.978Z,1272
2016-12-23T09:17:11.000Z,1288
2016-12-23T09:18:11.025Z,1356
2016-12-23T09:19:11.027Z,1464
2016-12-23T09:20:11.041Z,1492
2016-12-23T09:21:11.382Z,1456
2016-12-23T09:22:11.076Z,1412
2016-12-23T09:23:11.085Z,1328
2016-12-23T09:24:11.098Z,1228
2016-12-23T09:25:11.128Z,1244
2016-12-23T09:26:11.131Z,1072
2016-12-23T09:27:11.154Z,944
2016-12-23T09:28:11.167Z,872
2016-12-23T09:29:11.198Z,776
2016-12-23T09:30:11.193Z,728
2016-12-23T09:31:11.216Z,740
2016-12-23T09:32:11.227Z,788
2016-12-23T09:33:11.234Z,824
2016-12-23T09:34:11.254Z,908
2016-12-23T09:35:11.282Z,1004
2016-12-23T09:36:11.279Z,1052
2016-12-23T09:37:11.314Z,1104
2016-12-23T09:38:11.310Z,1152
2016-12-23T09:39:11.332Z,1172
2016-12-23T09:40:11.343Z,1080
2016-12-23T09:41:11.367Z,1024
2016-12-23T09:42:11.373Z,1012
2016-12-23T09:43:11.387Z,1032
2016-12-23T09:44:11.407Z,988
2016-12-23T09:45:11.746Z,1020
2016-12-23T09:46:11.427Z,1160
2016-12-23T09:47:11.459Z,1232
2016-12-23T09:48:11.502Z,1260
2016-12-23T09:49:11.545Z,1444
2016-12-23T09:50:11.500Z,1560
2016-12-23T09:51:11.510Z,1528
2016-12-23T09:52:11.524Z,1448
2016-12-23T09:53:11.537Z,1480
2016-12-23T09:54:11.574Z,1620
2016-12-23T09:55:11.583Z,1728
2016-12-23T09:56:11.584Z,1940
2016-12-23T09:57:11.600Z,2072
2016-12-23T09:58:11.732Z,2020
2016-12-23T09:59:11.645Z,2088
2016-12-23T10:00:11.641Z,2000
2016-12-23T10:01:11.652Z,1908
2016-12-23T10:02:11.671Z,1780
2016-12-23T10:03:11.707Z,1728
2016-12-23T10:04:11.709Z,1576
2016-12-23T10:05:11.741Z,1612
2016-12-23T10:06:11.734Z,2012
2016-12-23T10:07:11.739Z,2220
2016-12-23T10:08:11.849Z,1896
2016-12-23T10:09:11.783Z,1908
2016-12-23T10:10:11.796Z,1808
2016-12-23T10:11:11.819Z,1860
2016-12-23T10:12:11.825Z,2220
2016-12-23T10:13:11.890Z,2188
2016-12-23T10:14:11.852Z,2124
2016-12-23T10:15:11.871Z,2108
2016-12-23T10:16:11.881Z,2092
2016-12-23T10:17:11.914Z,1960
2016-12-23T10:18:11.918Z,2040
2016-12-23T10:19:11.969Z,2164
2016-12-23T10:20:11.973Z,2276
2016-12-23T10:21:11.973Z,2504
2016-12-23T10:22:11.987Z,2876
2016-12-23T10:23:12.002Z,3032
2016-12-23T10:24:12.012Z,3224
2016-12-23T10:25:12.021Z,3180
2016-12-23T10:26:12.374Z,3116
2016-12-23T10:27:12.054Z,3128
2016-12-23T10:28:12.085Z,3220
2016-12-23T10:29:12.097Z,3288
2016-12-23T10:30:12.096Z,3360
2016-12-23T10:31:12.124Z,3672
2016-12-23T10:32:12.147Z,4040
2016-12-23T10:33:12.155Z,3880
2016-12-23T10:34:12.168Z,3596
2016-12-23T10:35:12.182Z,3728
2016-12-23T10:36:12.195Z,3692
2016-12-23T10:37:12.226Z,3632
2016-12-23T10:38:12.244Z,3712
2016-12-23T10:39:12.262Z,3680
2016-12-23T10:40:12.257Z,3880
2016-12-23T10:41:12.279Z,4480
2016-12-23T10:42:12.289Z,4744
2016-12-23T10:43:12.326Z,4328
2016-12-23T10:44:12.324Z,3960
2016-12-23T10:45:12.353Z,5216
2016-12-23T10:46:12.360Z,4828
2016-12-23T10:47:12.370Z,5332
2016-12-23T10:48:12.388Z,5428
2016-12-23T10:49:12.400Z,5348
2016-12-23T10:50:12.415Z,5500
2016-12-23T10:51:12.432Z,5284
2016-12-23T10:52:12.441Z,5408
2016-12-23T10:53:12.474Z,5332
2016-12-23T10:54:12.558Z,5300
2016-12-23T10:55:12.502Z,5296
2016-12-23T10:56:12.505Z,5248
2016-12-23T10:57:12.541Z,5220
2016-12-23T10:58:12.545Z,5256
2016-12-23T10:59:12.566Z,5284
2016-12-23T11:00:12.580Z,5260
2016-12-23T11:01:12.610Z,5276
2016-12-23T11:02:12.613Z,5288
2016-12-23T11:03:12.638Z,5244
2016-12-23T11:04:12.663Z,5204
2016-12-23T11:05:12.664Z,5188
2016-12-23T11:06:12.670Z,5156
2016-12-23T11:07:12.695Z,5112
2016-12-23T11:08:12.693Z,5068
2016-12-23T11:09:12.728Z,5068
2016-12-23T11:10:12.738Z,5152
2016-12-23T11:11:12.767Z,5088
2016-12-23T11:12:12.758Z,5108
2016-12-23T11:13:12.795Z,4944
2016-12-23T11:14:12.794Z,4840
2016-12-23T11:15:12.847Z,4844
2016-12-23T11:16:12.835Z,3492
2016-12-23T11:17:12.858Z,3232
2016-12-23T11:18:12.861Z,3112
2016-12-23T11:19:12.871Z,3072
2016-12-23T11:20:12.912Z,2956
2016-12-23T11:21:12.905Z,2808
2016-12-23T11:22:12.932Z,2784
2016-12-23T11:23:12.939Z,2884
2016-12-23T11:24:12.961Z,2936
2016-12-23T11:25:12.986Z,2944
2016-12-23T11:26:13.004Z,2924
2016-12-23T11:27:13.017Z,2876
2016-12-23T11:28:13.026Z,2864
2016-12-23T11:29:13.056Z,2920
2016-12-23T11:30:13.064Z,2864
2016-12-23T11:31:13.086Z,2720
2016-12-23T11:32:13.128Z,2580
2016-12-23T11:33:13.455Z,2496
2016-12-23T11:34:13.135Z,2628
2016-12-23T11:35:13.145Z,2744
2016-12-23T11:36:13.168Z,2724
2016-12-23T11:37:13.178Z,2752
2016-12-23T11:38:13.190Z,2788
2016-12-23T11:39:13.202Z,2856
2016-12-23T11:40:13.221Z,2704
2016-12-23T11:41:13.249Z,2548
2016-12-23T11:42:13.252Z,2576
2016-12-23T11:43:13.280Z,2604
2016-12-23T11:44:13.285Z,2468
2016-12-23T11:45:13.324Z,2400
2016-12-23T11:46:13.321Z,2644
2016-12-23T11:47:13.669Z,3160
2016-12-23T11:48:13.347Z,3472
2016-12-23T11:49:13.374Z,3552
2016-12-23T11:50:13.385Z,3556
2016-12-23T11:51:13.403Z,3476
2016-12-23T11:52:13.420Z,3320
2016-12-23T11:53:13.456Z,3184
2016-12-23T11:54:13.448Z,3012
2016-12-23T11:55:13.472Z,2876
2016-12-23T11:56:13.476Z,2860
2016-12-23T11:57:13.498Z,2868
2016-12-23T11:58:13.514Z,2864
2016-12-23T11:59:13.531Z,2932
2016-12-23T12:00:13.545Z,3124
2016-12-23T12:01:13.556Z,3316
2016-12-23T12:02:13.573Z,3408
2016-12-23T12:03:13.601Z,3364
2016-12-23T12:04:13.618Z,3360
2016-12-23T12:05:13.955Z,3332
2016-12-23T12:06:13.636Z,3380
2016-12-23T12:07:13.659Z,3532
2016-12-23T12:08:13.687Z,3696
2016-12-23T12:09:13.702Z,3820
2016-12-23T12:10:13.718Z,3908
2016-12-23T12:11:13.727Z,4036
2016-12-23T12:12:13.737Z,4172
2016-12-23T12:13:13.755Z,4236
2016-12-23T12:14:13.779Z,4276
2016-12-23T12:15:13.797Z,4240
2016-12-23T12:16:13.812Z,4208
2016-12-23T12:17:13.847Z,4308
2016-12-23T12:18:13.841Z,4216
2016-12-23T12:19:13.864Z,4304
2016-12-23T12:20:13.862Z,4260
2016-12-23T12:21:13.926Z,4340
2016-12-23T12:22:13.946Z,4100
2016-12-23T12:23:13.928Z,4116
2016-12-23T12:24:13.931Z,4284
2016-12-23T12:25:13.958Z,4428
2016-12-23T12:26:13.971Z,4424
2016-12-23T12:27:13.988Z,4252
2016-12-23T12:28:14.000Z,4956
2016-12-23T12:29:14.009Z,4908
2016-12-23T12:30:14.031Z,4900
2016-12-23T12:31:14.057Z,4896
2016-12-23T12:32:14.065Z,4780
2016-12-23T12:33:14.070Z,4768
2016-12-23T12:34:14.093Z,4744
2016-12-23T12:35:14.128Z,4760
2016-12-23T12:36:14.157Z,4764
2016-12-23T12:37:14.138Z,4736
2016-12-23T12:38:14.158Z,4632
2016-12-23T12:39:14.171Z,4564
2016-12-23T12:40:14.180Z,4500
2016-12-23T12:41:14.210Z,4396
2016-12-23T12:42:14.253Z,4356
2016-12-23T12:43:14.566Z,4308
2016-12-23T12:44:14.256Z,4280
2016-12-23T12:45:14.283Z,4240
2016-12-23T12:46:14.307Z,4224
2016-12-23T12:47:14.308Z,4208
2016-12-23T12:48:14.317Z,4144
2016-12-23T12:49:14.335Z,4108
2016-12-23T12:50:14.350Z,4100
2016-12-23T12:51:14.371Z,4116
2016-12-23T12:52:14.378Z,4016
2016-12-23T12:53:14.399Z,4008
2016-12-23T12:54:14.742Z,3608
2016-12-23T12:55:14.433Z,3612
2016-12-23T12:56:14.451Z,3440
2016-12-23T12:57:14.463Z,3440
2016-12-23T12:58:14.485Z,3436
2016-12-23T12:59:14.514Z,3412
2016-12-23T13:00:14.509Z,3380
2016-12-23T13:01:14.538Z,3368
2016-12-23T13:02:14.532Z,3280
2016-12-23T13:03:14.562Z,3168
2016-12-23T13:04:14.571Z,3124
2016-12-23T13:05:14.597Z,3084
2016-12-23T13:06:14.610Z,3012
2016-12-23T13:07:14.622Z,2972
2016-12-23T13:08:14.641Z,2912
2016-12-23T13:09:14.656Z,2844
2016-12-23T13:10:14.667Z,2836
2016-12-23T13:11:14.700Z,2812
2016-12-23T13:12:14.692Z,2740
2016-12-23T13:13:14.712Z,2712
2016-12-23T13:14:14.736Z,2724
2016-12-23T13:15:14.769Z,2744
2016-12-23T13:16:14.764Z,2704
2016-12-23T13:17:14.797Z,2736
2016-12-23T13:18:14.796Z,2752
2016-12-23T13:19:14.838Z,2808
2016-12-23T13:20:14.831Z,2884
2016-12-23T13:21:14.861Z,2944
2016-12-23T13:22:14.856Z,2952
2016-12-23T13:23:14.873Z,2956
2016-12-23T13:24:14.894Z,2952
2016-12-23T13:25:14.914Z,2936
2016-12-23T13:26:14.921Z,2924
2016-12-23T13:27:14.962Z,2932
2016-12-23T13:28:14.952Z,2912
2016-12-23T13:29:15.313Z,2900
2016-12-23T13:30:14.989Z,2896
2016-12-23T13:31:15.012Z,2896
2016-12-23T13:32:15.027Z,2892
2016-12-23T13:33:15.042Z,2888
2016-12-23T13:34:15.058Z,2864
2016-12-23T13:35:15.063Z,2844
2016-12-23T13:36:15.095Z,2792
2016-12-23T13:37:15.106Z,2752
2016-12-23T13:38:15.126Z,2720
2016-12-23T13:39:15.468Z,2692
2016-12-23T13:40:15.150Z,2660
2016-12-23T13:41:15.183Z,2628
2016-12-23T13:42:15.189Z,2592
2016-12-23T13:43:15.198Z,2556
2016-12-23T13:44:15.207Z,2516
2016-12-23T13:45:15.554Z,2476
2016-12-23T13:46:15.246Z,2428
2016-12-23T13:47:15.266Z,2384
2016-12-23T13:48:15.289Z,2348
2016-12-23T13:49:15.310Z,2300
2016-12-23T13:50:15.325Z,2256
2016-12-23T13:51:15.348Z,2212
2016-12-23T13:52:15.432Z,2168
2016-12-23T13:53:15.689Z,2128
2016-12-23T13:54:15.374Z,2088
2016-12-23T13:55:15.402Z,2044
2016-12-23T13:56:15.411Z,2000
2016-12-23T13:57:15.449Z,1964
2016-12-23T13:58:15.435Z,1928
2016-12-23T13:59:15.471Z,1896
2016-12-23T14:00:15.464Z,1860
2016-12-23T14:01:15.510Z,1824
2016-12-23T14:02:15.501Z,1792
2016-12-23T14:03:15.537Z,1760
2016-12-23T14:04:15.533Z,1728
2016-12-23T14:05:15.558Z,1700
2016-12-23T14:06:15.561Z,1668
2016-12-23T14:07:15.612Z,1648